Time;durP1;ratioP1;P1;durP2;ratioP2;P2;SDS_P1;SDS_P2;PMS_P1;PMS_P2;Temp;Humidity;BMP_temperature;BMP_pressure;BME280_temperature;BME280_humidity;BME280_pressure;Samples;Min_cycle;Max_cycle;Signal;HPM_P1;HPM_P2
2022/08/06 00:01:49;;;;;;;;;;;13.40;99.90;;;;;;5155223;27;19923;-71
2022/08/06 00:04:15;;;;;;;;;;;13.30;99.90;;;;;;5155117;27;20026;-71
2022/08/06 00:06:40;;;;;;;;;;;13.20;99.90;;;;;;5155148;27;19926;-70
2022/08/06 00:09:06;;;;;;;;;;;12.10;99.90;;;;;;5136663;27;19927;-70
2022/08/06 00:11:32;;;;;;;;;;;13.10;99.90;;;;;;5154931;27;19946;-69
2022/08/06 00:13:57;;;;;;;;;;;13.30;99.90;;;;;;5154606;27;20282;-71
2022/08/06 00:16:23;;;;;;;;;;;13.10;99.90;;;;;;5155060;27;19927;-70
2022/08/06 00:18:48;;;;;;;;;;;13.10;99.90;;;;;;5172324;27;20323;-71
2022/08/06 00:21:14;;;;;;;;;;;13.00;99.90;;;;;;5158930;27;19987;-70
2022/08/06 00:23:39;;;;;;;;;;;13.00;99.90;;;;;;5140706;27;19923;-70
2022/08/06 00:26:05;;;;;;;;;;;13.00;99.90;;;;;;5158607;27;20305;-70
2022/08/06 00:28:30;;;;;;;;;;;13.00;99.90;;;;;;5140330;27;19923;-71
2022/08/06 00:30:56;;;;;;;;;;;12.90;99.90;;;;;;5158818;27;19923;-70
2022/08/06 00:33:22;;;;;;;;;;;13.60;99.90;;;;;;5158517;27;19967;-70
2022/08/06 00:35:47;;;;;;;;;;;12.90;99.90;;;;;;5158634;27;19923;-70
2022/08/06 00:38:13;;;;;;;;;;;12.90;99.90;;;;;;5158515;27;19927;-70
2022/08/06 00:40:38;;;;;;;;;;;12.90;99.90;;;;;;5158384;27;20389;-71
2022/08/06 00:43:04;;;;;;;;;;;12.90;99.90;;;;;;5158511;27;19952;-71
2022/08/06 00:45:30;;;;;;;;;;;12.90;99.90;;;;;;5158257;27;19975;-70
2022/08/06 00:47:56;;;;;;;;;;;12.90;99.90;;;;;;5174713;27;19927;-70
2022/08/06 00:50:22;;;;;;;;;;;12.90;99.90;;;;;;5158360;27;19985;-70
2022/08/06 00:52:47;;;;;;;;;;;12.90;99.90;;;;;;5158624;27;19923;-70
2022/08/06 00:55:13;;;;;;;;;;;12.90;99.90;;;;;;5158072;27;19927;-70
2022/08/06 00:57:38;;;;;;;;;;;12.90;99.90;;;;;;5139638;27;19923;-70
2022/08/06 01:00:05;;;;;;;;;;;12.90;99.90;;;;;;5158013;27;19974;-71
2022/08/06 01:02:30;;;;;;;;;;;12.90;99.90;;;;;;5157069;27;19966;-70
2022/08/06 01:04:56;;;;;;;;;;;12.90;99.90;;;;;;5158047;27;19968;-70
2022/08/06 01:07:22;;;;;;;;;;;12.90;99.90;;;;;;5157994;27;19923;-69
2022/08/06 01:09:48;;;;;;;;;;;12.90;99.90;;;;;;5139708;27;19982;-70
2022/08/06 01:12:14;;;;;;;;;;;12.90;99.90;;;;;;5157708;27;20019;-70
2022/08/06 01:14:40;;;;;;;;;;;13.00;99.90;;;;;;5157752;27;19923;-71
2022/08/06 01:17:16;;;;;;;;;;;13.00;99.90;;;;;;5157541;27;19927;-70
2022/08/06 01:19:51;;;;;;;;;;;13.10;99.90;;;;;;5157833;27;19923;-70
2022/08/06 01:22:32;;;;;;;;;;;13.10;99.90;;;;;;5157720;27;19929;-70
2022/08/06 01:25:16;;;;;;;;;;;13.10;99.90;;;;;;5157702;27;19930;-71
2022/08/06 01:28:00;;;;;;;;;;;13.20;99.90;;;;;;5174065;27;19928;-70
2022/08/06 01:30:30;;;;;;;;;;;13.30;99.90;;;;;;5157209;27;19927;-70
2022/08/06 01:33:16;;;;;;;;;;;13.30;99.90;;;;;;5157345;27;19927;-70
2022/08/06 01:35:44;;;;;;;;;;;13.40;99.90;;;;;;5157391;27;19924;-70
2022/08/06 01:38:11;;;;;;;;;;;13.30;99.90;;;;;;5157140;27;20396;-70
2022/08/06 01:40:38;;;;;;;;;;;13.40;99.90;;;;;;5139140;27;19929;-70
2022/08/06 01:43:07;;;;;;;;;;;13.40;99.90;;;;;;5157257;27;19970;-70
2022/08/06 01:45:34;;;;;;;;;;;13.50;99.90;;;;;;5157319;27;20018;-71
2022/08/06 01:48:04;;;;;;;;;;;13.80;99.90;;;;;;5157084;27;19931;-70
2022/08/06 01:50:32;;;;;;;;;;;12.90;99.90;;;;;;5157028;27;19923;-70
2022/08/06 01:52:59;;;;;;;;;;;13.70;99.90;;;;;;5157151;27;19974;-70
2022/08/06 01:55:26;;;;;;;;;;;13.30;99.90;;;;;;5157024;27;19978;-71
2022/08/06 01:57:53;;;;;;;;;;;13.50;99.90;;;;;;5156977;27;19931;-70
2022/08/06 02:00:19;;;;;;;;;;;13.50;99.90;;;;;;5156865;27;20390;-70
2022/08/06 02:02:45;;;;;;;;;;;13.50;99.90;;;;;;5156854;27;19923;-70
2022/08/06 02:05:12;;;;;;;;;;;13.40;99.90;;;;;;5172955;27;19923;-70
2022/08/06 02:07:40;;;;;;;;;;;13.80;99.90;;;;;;5156897;27;20374;-70
2022/08/06 02:10:06;;;;;;;;;;;13.40;99.90;;;;;;5156788;27;20003;-71
2022/08/06 02:12:33;;;;;;;;;;;13.30;99.90;;;;;;5156811;27;19975;-70
2022/08/06 02:15:00;;;;;;;;;;;13.30;99.90;;;;;;5156692;27;19927;-71
2022/08/06 02:17:30;;;;;;;;;;;13.20;99.90;;;;;;5156370;27;19982;-70
2022/08/06 02:20:00;;;;;;;;;;;13.20;99.90;;;;;;5156400;27;19953;-70
2022/08/06 02:22:31;;;;;;;;;;;13.30;99.90;;;;;;5156663;27;19932;-70
2022/08/06 02:24:58;;;;;;;;;;;13.10;99.90;;;;;;5156413;27;20373;-70
2022/08/06 02:27:24;;;;;;;;;;;13.20;99.90;;;;;;5156419;27;19923;-69
2022/08/06 02:29:51;;;;;;;;;;;13.20;99.90;;;;;;5156268;27;19923;-70
2022/08/06 02:32:17;;;;;;;;;;;13.20;99.90;;;;;;5156233;27;19941;-70
2022/08/06 02:34:43;;;;;;;;;;;13.20;99.90;;;;;;5156027;27;20012;-71
2022/08/06 02:37:20;;;;;;;;;;;13.40;99.90;;;;;;5156040;27;19923;-70
2022/08/06 02:39:57;;;;;;;;;;;13.30;99.90;;;;;;5156128;27;19923;-71
2022/08/06 02:42:37;;;;;;;;;;;13.30;99.90;;;;;;5155364;27;19923;-70
2022/08/06 02:45:16;;;;;;;;;;;13.30;99.90;;;;;;5155899;27;19923;-71
2022/08/06 02:47:47;;;;;;;;;;;13.30;99.90;;;;;;5156150;27;19927;-71
2022/08/06 02:50:15;;;;;;;;;;;13.30;99.90;;;;;;5156062;27;20042;-71
2022/08/06 02:52:42;;;;;;;;;;;13.20;99.90;;;;;;5156011;27;19923;-70
2022/08/06 02:55:12;;;;;;;;;;;13.20;99.90;;;;;;5155808;27;20048;-71
2022/08/06 02:57:39;;;;;;;;;;;13.10;99.90;;;;;;5155656;27;20281;-71
2022/08/06 03:00:06;;;;;;;;;;;13.10;99.90;;;;;;5155654;27;20378;-70
2022/08/06 03:02:32;;;;;;;;;;;13.00;99.90;;;;;;5155868;27;19930;-70
2022/08/06 03:04:59;;;;;;;;;;;13.00;99.90;;;;;;5155825;27;19923;-70
2022/08/06 03:07:27;;;;;;;;;;;12.90;99.90;;;;;;5155601;27;20334;-70
2022/08/06 03:09:53;;;;;;;;;;;12.00;99.90;;;;;;5155470;27;20369;-71
2022/08/06 03:12:19;;;;;;;;;;;12.80;99.90;;;;;;5155550;27;19922;-70
2022/08/06 03:14:46;;;;;;;;;;;12.80;99.90;;;;;;5155555;27;19977;-69
2022/08/06 03:17:13;;;;;;;;;;;13.70;99.90;;;;;;5155526;27;20090;-70
2022/08/06 03:19:39;;;;;;;;;;;12.70;99.90;;;;;;5155625;27;19923;-70
2022/08/06 03:22:05;;;;;;;;;;;12.70;99.90;;;;;;5155540;27;20388;-71
2022/08/06 03:24:32;;;;;;;;;;;12.70;99.90;;;;;;5155442;27;19936;-70
2022/08/06 03:26:58;;;;;;;;;;;12.60;99.90;;;;;;5155289;27;19923;-70
2022/08/06 03:29:25;;;;;;;;;;;12.80;99.90;;;;;;5155583;27;19946;-71
2022/08/06 03:31:51;;;;;;;;;;;12.60;99.90;;;;;;5155178;27;20400;-70
2022/08/06 03:34:17;;;;;;;;;;;12.60;99.90;;;;;;5155387;27;19927;-70
2022/08/06 03:36:42;;;;;;;;;;;12.50;99.90;;;;;;5155369;27;19923;-71
2022/08/06 03:39:10;;;;;;;;;;;12.50;99.90;;;;;;5155275;27;20369;-70
2022/08/06 03:41:36;;;;;;;;;;;12.50;99.90;;;;;;5155123;27;19930;-70
2022/08/06 03:44:03;;;;;;;;;;;12.40;99.90;;;;;;5137078;27;19930;-70
2022/08/06 03:46:32;;;;;;;;;;;12.30;99.90;;;;;;5155395;27;19968;-70
2022/08/06 03:48:59;;;;;;;;;;;12.20;99.90;;;;;;5155317;27;19923;-70
2022/08/06 03:51:26;;;;;;;;;;;12.20;99.90;;;;;;5155204;27;19930;-70
2022/08/06 03:53:52;;;;;;;;;;;12.20;99.90;;;;;;5159006;27;19930;-70
2022/08/06 03:56:22;;;;;;;;;;;10.90;99.90;;;;;;5141034;27;20285;-70
2022/08/06 03:58:50;;;;;;;;;;;12.30;99.90;;;;;;5159171;27;19927;-71
2022/08/06 04:01:17;;;;;;;;;;;12.30;99.90;;;;;;5159411;27;19923;-70
2022/08/06 04:03:44;;;;;;;;;;;12.60;99.90;;;;;;5159325;27;19987;-70
2022/08/06 04:06:11;;;;;;;;;;;12.30;99.90;;;;;;5159044;27;20377;-70
2022/08/06 04:08:38;;;;;;;;;;;12.30;99.90;;;;;;5159077;27;20383;-70
2022/08/06 04:11:04;;;;;;;;;;;12.30;99.90;;;;;;5158987;27;20025;-70
2022/08/06 04:13:30;;;;;;;;;;;12.30;99.90;;;;;;5159145;27;19927;-70
2022/08/06 04:15:56;;;;;;;;;;;12.30;99.90;;;;;;5158902;27;19927;-70
2022/08/06 04:18:24;;;;;;;;;;;12.30;99.90;;;;;;5158884;27;20017;-70
2022/08/06 04:20:51;;;;;;;;;;;12.30;99.90;;;;;;5158937;27;19926;-71
2022/08/06 04:23:16;;;;;;;;;;;12.30;99.90;;;;;;5158873;27;19927;-71
2022/08/06 04:25:44;;;;;;;;;;;12.30;99.90;;;;;;5158643;27;20293;-70
2022/08/06 04:28:10;;;;;;;;;;;12.50;99.90;;;;;;5158746;27;20008;-70
2022/08/06 04:30:38;;;;;;;;;;;12.40;99.90;;;;;;5158766;27;20017;-69
2022/08/06 04:33:04;;;;;;;;;;;12.40;99.90;;;;;;5140196;27;19931;-71
2022/08/06 04:35:30;;;;;;;;;;;12.50;99.90;;;;;;5158555;27;19923;-71
2022/08/06 04:37:58;;;;;;;;;;;12.40;99.90;;;;;;5158450;27;19978;-70
2022/08/06 04:40:26;;;;;;;;;;;12.40;99.90;;;;;;5139336;27;21313;-70
2022/08/06 04:42:51;;;;;;;;;;;12.40;99.90;;;;;;5158397;27;19923;-72
2022/08/06 04:45:17;;;;;;;;;;;12.30;99.90;;;;;;5139901;27;19929;-70
2022/08/06 04:47:43;;;;;;;;;;;12.30;99.90;;;;;;5158479;27;19945;-70
2022/08/06 04:50:10;;;;;;;;;;;12.40;99.90;;;;;;5158312;27;19923;-70
2022/08/06 04:52:35;;;;;;;;;;;12.40;99.90;;;;;;5158290;27;20293;-70
2022/08/06 04:55:01;;;;;;;;;;;12.40;99.90;;;;;;5158149;27;19930;-70
2022/08/06 04:57:26;;;;;;;;;;;12.40;99.90;;;;;;5158050;27;19967;-70
2022/08/06 04:59:52;;;;;;;;;;;12.40;99.90;;;;;;5158366;27;20398;-69
2022/08/06 05:02:18;;;;;;;;;;;12.50;99.90;;;;;;5158245;27;20276;-71
2022/08/06 05:04:43;;;;;;;;;;;12.50;99.90;;;;;;5139180;27;20277;-71
2022/08/06 05:07:12;;;;;;;;;;;12.60;99.90;;;;;;5157950;27;19923;-70
2022/08/06 05:09:38;;;;;;;;;;;12.50;99.90;;;;;;5157922;27;19923;-71
2022/08/06 05:12:05;;;;;;;;;;;12.70;99.90;;;;;;5139533;27;20013;-70
2022/08/06 05:14:48;;;;;;;;;;;12.80;99.90;;;;;;5157981;27;19927;-70
2022/08/06 05:17:15;;;;;;;;;;;12.80;99.90;;;;;;5174026;27;19923;-70
2022/08/06 05:19:47;;;;;;;;;;;12.80;99.90;;;;;;5157856;27;20003;-70
2022/08/06 05:22:13;;;;;;;;;;;12.80;99.90;;;;;;5157603;27;19950;-70
2022/08/06 05:24:39;;;;;;;;;;;12.80;99.90;;;;;;5157505;27;19930;-71
2022/08/06 05:27:05;;;;;;;;;;;12.80;99.90;;;;;;5139394;27;19923;-70
2022/08/06 05:29:31;;;;;;;;;;;12.80;99.90;;;;;;5157641;27;19927;-70
2022/08/06 05:31:59;;;;;;;;;;;12.80;99.90;;;;;;5157381;27;19947;-70
2022/08/06 05:34:25;;;;;;;;;;;12.80;99.90;;;;;;5157417;27;19923;-70
2022/08/06 05:36:51;;;;;;;;;;;12.90;99.90;;;;;;5157345;27;19923;-70
2022/08/06 05:39:16;;;;;;;;;;;12.90;99.90;;;;;;5157300;27;19930;-70
2022/08/06 05:41:42;;;;;;;;;;;12.90;99.90;;;;;;5157467;27;19922;-70
2022/08/06 05:44:08;;;;;;;;;;;13.40;99.90;;;;;;5157470;27;19978;-70
2022/08/06 05:46:37;;;;;;;;;;;13.00;99.90;;;;;;5139157;27;19923;-70
2022/08/06 05:49:02;;;;;;;;;;;13.10;99.90;;;;;;5138798;27;19930;-70
2022/08/06 05:51:31;;;;;;;;;;;13.10;99.90;;;;;;5157090;27;19923;-69
2022/08/06 05:53:59;;;;;;;;;;;13.10;99.90;;;;;;5156997;27;19931;-70
2022/08/06 05:56:27;;;;;;;;;;;13.20;99.90;;;;;;5156853;27;20292;-70
2022/08/06 05:58:55;;;;;;;;;;;13.30;99.90;;;;;;5157028;27;20326;-70
2022/08/06 06:01:21;;;;;;;;;;;13.40;99.90;;;;;;5156967;27;19931;-70
2022/08/06 06:03:47;;;;;;;;;;;13.40;99.90;;;;;;5156776;27;19970;-70
2022/08/06 06:06:12;;;;;;;;;;;13.50;99.90;;;;;;5138612;27;19930;-71
2022/08/06 06:08:38;;;;;;;;;;;13.60;99.90;;;;;;5156743;27;19976;-71
2022/08/06 06:11:04;;;;;;;;;;;13.70;99.90;;;;;;5156513;27;20411;-70
2022/08/06 06:13:30;;;;;;;;;;;13.80;99.90;;;;;;5138525;27;19929;-71
2022/08/06 06:16:17;;;;;;;;;;;13.80;99.90;;;;;;5155681;27;19934;-70
2022/08/06 06:19:01;;;;;;;;;;;13.90;99.90;;;;;;5138154;27;19927;-70
2022/08/06 06:21:32;;;;;;;;;;;14.10;99.90;;;;;;5138207;27;20033;-70
2022/08/06 06:24:06;;;;;;;;;;;14.20;99.90;;;;;;5156693;27;19947;-70
2022/08/06 06:26:35;;;;;;;;;;;14.30;99.90;;;;;;5156486;27;19924;-70
2022/08/06 06:29:00;;;;;;;;;;;14.40;99.90;;;;;;5137913;27;20298;-70
2022/08/06 06:31:40;;;;;;;;;;;14.50;99.90;;;;;;5137643;27;19927;-70
2022/08/06 06:34:26;;;;;;;;;;;14.60;99.90;;;;;;5137877;27;19934;-70
2022/08/06 06:36:58;;;;;;;;;;;14.20;99.90;;;;;;5148392;27;20354;-71
2022/08/06 06:39:26;;;;;;;;;;;14.80;99.90;;;;;;5156212;27;19927;-70
2022/08/06 06:41:58;;;;;;;;;;;14.90;99.90;;;;;;5155928;27;19981;-70
2022/08/06 06:44:28;;;;;;;;;;;15.00;99.90;;;;;;5156035;27;19962;-69
2022/08/06 06:46:56;;;;;;;;;;;15.00;99.90;;;;;;5138051;27;19930;-71
2022/08/06 06:49:21;;;;;;;;;;;15.10;99.90;;;;;;5137887;27;19938;-70
2022/08/06 06:51:50;;;;;;;;;;;15.20;99.90;;;;;;5156062;27;19927;-70
2022/08/06 06:54:18;;;;;;;;;;;15.30;99.90;;;;;;5156018;27;20121;-70
2022/08/06 06:56:45;;;;;;;;;;;15.30;99.90;;;;;;5154481;27;20393;-70
2022/08/06 06:59:14;;;;;;;;;;;15.40;99.90;;;;;;5155665;27;20297;-70
2022/08/06 07:01:40;;;;;;;;;;;15.40;99.90;;;;;;5155798;27;20369;-71
2022/08/06 07:04:08;;;;;;;;;;;15.50;99.90;;;;;;5156141;27;19930;-70
2022/08/06 07:06:35;;;;;;;;;;;15.60;99.90;;;;;;5137076;27;19934;-71
2022/08/06 07:09:01;;;;;;;;;;;15.60;99.90;;;;;;5155682;27;19995;-70
2022/08/06 07:11:27;;;;;;;;;;;15.70;99.90;;;;;;5155438;27;19923;-71
2022/08/06 07:13:55;;;;;;;;;;;15.80;99.90;;;;;;5136930;27;19923;-70
2022/08/06 07:16:22;;;;;;;;;;;15.90;99.90;;;;;;5155745;27;20030;-70
2022/08/06 07:18:48;;;;;;;;;;;16.00;99.90;;;;;;5155547;27;20270;-70
2022/08/06 07:21:15;;;;;;;;;;;16.10;99.90;;;;;;5155541;27;19945;-70
2022/08/06 07:23:42;;;;;;;;;;;15.60;99.90;;;;;;5155471;27;19976;-70
2022/08/06 07:26:08;;;;;;;;;;;16.30;99.90;;;;;;5155228;27;20382;-70
2022/08/06 07:28:34;;;;;;;;;;;16.40;99.90;;;;;;5154828;27;19930;-70
2022/08/06 07:31:02;;;;;;;;;;;16.50;99.90;;;;;;5155764;27;19923;-70
2022/08/06 07:33:28;;;;;;;;;;;16.60;99.90;;;;;;5155435;27;19923;-70
2022/08/06 07:35:55;;;;;;;;;;;16.60;99.90;;;;;;5155308;27;19975;-70
2022/08/06 07:38:21;;;;;;;;;;;16.70;99.90;;;;;;5155273;27;19923;-71
2022/08/06 07:40:58;;;;;;;;;;;16.90;99.90;;;;;;5155118;27;19950;-71
2022/08/06 07:43:30;;;;;;;;;;;16.90;99.90;;;;;;5155391;27;20322;-70
2022/08/06 07:45:56;;;;;;;;;;;17.00;99.90;;;;;;5137058;27;20366;-70
2022/08/06 07:48:28;;;;;;;;;;;17.10;99.90;;;;;;5155286;27;19929;-71
2022/08/06 07:50:54;;;;;;;;;;;17.00;99.90;;;;;;5136117;27;19924;-70
2022/08/06 07:53:20;;;;;;;;;;;17.00;99.90;;;;;;5103961;28;19977;-69
2022/08/06 07:55:45;;;;;;;;;;;15.90;99.90;;;;;;5162368;27;19927;-71
2022/08/06 07:58:12;;;;;;;;;;;16.90;99.90;;;;;;5152445;27;19929;-70
2022/08/06 08:00:39;;;;;;;;;;;16.80;99.90;;;;;;5154984;27;20480;-70
2022/08/06 08:08:34;;;;;;;;;;;16.80;99.90;;;;;;5154831;27;20442;-70
2022/08/06 08:11:00;;;;;;;;;;;16.90;99.90;;;;;;5136747;27;19923;-71
2022/08/06 08:13:25;;;;;;;;;;;16.90;99.90;;;;;;5155066;27;19923;-71
2022/08/06 08:15:51;;;;;;;;;;;17.00;99.90;;;;;;5155004;27;19975;-70
2022/08/06 08:18:17;;;;;;;;;;;17.00;99.90;;;;;;5154779;27;20289;-71
2022/08/06 08:20:43;;;;;;;;;;;17.10;99.90;;;;;;5154858;27;19923;-72
2022/08/06 08:23:11;;;;;;;;;;;16.20;99.90;;;;;;5154728;27;19923;-70
2022/08/06 08:25:37;;;;;;;;;;;17.20;99.90;;;;;;5155250;27;19930;-71
2022/08/06 08:28:04;;;;;;;;;;;17.30;99.90;;;;;;5153877;27;20503;-71
2022/08/06 08:30:30;;;;;;;;;;;17.30;99.90;;;;;;5154783;27;19927;-71
2022/08/06 08:32:56;;;;;;;;;;;17.40;99.90;;;;;;5153539;27;19930;-72
2022/08/06 08:35:21;;;;;;;;;;;17.40;99.90;;;;;;5154599;27;19983;-70
2022/08/06 08:37:47;;;;;;;;;;;17.50;99.90;;;;;;5152213;27;20385;-71
2022/08/06 08:40:12;;;;;;;;;;;17.60;99.90;;;;;;5156984;27;19937;-71
2022/08/06 08:42:45;;;;;;;;;;;17.60;99.90;;;;;;5162087;27;19930;-71
2022/08/06 08:45:12;;;;;;;;;;;17.60;99.90;;;;;;5155804;27;19923;-71
2022/08/06 08:47:39;;;;;;;;;;;17.60;99.90;;;;;;5138636;27;19930;-75
2022/08/06 08:50:05;;;;;;;;;;;17.70;99.90;;;;;;5158092;27;20381;-71
2022/08/06 08:52:34;;;;;;;;;;;17.70;99.90;;;;;;5159778;27;19938;-71
2022/08/06 08:55:04;;;;;;;;;;;17.70;99.90;;;;;;5179162;27;20380;-71
2022/08/06 08:57:30;;;;;;;;;;;17.80;99.90;;;;;;5178780;27;19923;-71
2022/08/06 08:59:56;;;;;;;;;;;17.90;99.90;;;;;;5179086;27;19923;-70
2022/08/06 09:02:23;;;;;;;;;;;18.00;99.90;;;;;;5178869;27;19930;-70
2022/08/06 09:04:49;;;;;;;;;;;18.10;99.90;;;;;;5178890;27;19930;-70
2022/08/06 09:07:15;;;;;;;;;;;18.10;99.90;;;;;;5160521;27;19923;-70
2022/08/06 09:09:41;;;;;;;;;;;18.20;99.90;;;;;;5178988;27;20373;-71
2022/08/06 09:12:07;;;;;;;;;;;18.20;99.90;;;;;;5194651;27;19927;-70
2022/08/06 09:14:33;;;;;;;;;;;18.20;99.90;;;;;;5178811;27;19923;-70
2022/08/06 09:16:59;;;;;;;;;;;18.20;99.90;;;;;;5178632;27;19926;-71
2022/08/06 09:19:25;;;;;;;;;;;18.20;99.90;;;;;;5178738;27;19929;-70
2022/08/06 09:21:51;;;;;;;;;;;18.30;99.90;;;;;;5159762;27;20365;-71
2022/08/06 09:24:17;;;;;;;;;;;18.20;99.90;;;;;;5178490;27;19933;-71
2022/08/06 09:27:01;;;;;;;;;;;18.10;99.90;;;;;;5160197;27;20433;-71
2022/08/06 09:29:29;;;;;;;;;;;18.10;99.90;;;;;;5178477;27;19926;-70
2022/08/06 09:31:55;;;;;;;;;;;18.00;99.90;;;;;;5159796;27;19974;-70
2022/08/06 09:34:21;;;;;;;;;;;18.00;99.90;;;;;;5178205;27;19970;-71
2022/08/06 09:36:47;;;;;;;;;;;17.90;99.90;;;;;;5178062;27;19978;-70
2022/08/06 09:39:13;;;;;;;;;;;17.90;99.90;;;;;;5160032;27;20359;-71
2022/08/06 09:41:48;;;;;;;;;;;17.90;99.90;;;;;;5178184;27;19922;-71
2022/08/06 09:44:14;;;;;;;;;;;17.90;99.90;;;;;;5178267;27;19960;-71
2022/08/06 09:46:44;;;;;;;;;;;17.90;99.90;;;;;;5159730;27;19927;-71
2022/08/06 09:49:10;;;;;;;;;;;17.90;99.90;;;;;;5178039;27;19930;-71
2022/08/06 09:51:37;;;;;;;;;;;17.80;99.90;;;;;;5177864;27;19936;-70
2022/08/06 09:54:04;;;;;;;;;;;17.90;99.90;;;;;;5177826;27;20385;-70
2022/08/06 09:56:30;;;;;;;;;;;17.90;99.90;;;;;;5177780;27;19974;-71
2022/08/06 09:59:00;;;;;;;;;;;18.00;99.90;;;;;;5159165;27;20373;-71
2022/08/06 10:01:27;;;;;;;;;;;18.10;99.90;;;;;;5177799;27;20318;-70
2022/08/06 10:03:54;;;;;;;;;;;18.20;99.90;;;;;;5177643;27;19923;-70
2022/08/06 10:06:20;;;;;;;;;;;18.40;99.90;;;;;;5177625;27;19922;-70
2022/08/06 10:08:47;;;;;;;;;;;18.40;99.90;;;;;;5177753;27;20008;-71
2022/08/06 10:11:12;;;;;;;;;;;18.50;99.90;;;;;;5177599;27;19958;-71
2022/08/06 10:13:38;;;;;;;;;;;18.50;99.90;;;;;;5158450;27;20281;-71
2022/08/06 10:16:16;;;;;;;;;;;18.50;99.90;;;;;;5177344;27;20394;-71
2022/08/06 10:18:43;;;;;;;;;;;18.50;99.90;;;;;;5177164;27;20009;-71
2022/08/06 10:21:09;;;;;;;;;;;18.40;99.90;;;;;;5177592;27;19975;-71
2022/08/06 10:23:36;;;;;;;;;;;18.20;99.90;;;;;;5159134;27;19923;-71
2022/08/06 10:26:03;;;;;;;;;;;18.20;99.90;;;;;;5177256;27;19923;-70
2022/08/06 10:28:29;;;;;;;;;;;18.10;99.90;;;;;;5177221;27;20471;-70
2022/08/06 10:30:56;;;;;;;;;;;18.00;99.90;;;;;;5177210;27;19966;-70
2022/08/06 10:33:22;;;;;;;;;;;18.00;99.90;;;;;;5159344;27;20323;-71
2022/08/06 10:35:51;;;;;;;;;;;17.90;99.90;;;;;;5156033;27;20435;-70
2022/08/06 10:38:20;;;;;;;;;;;18.00;99.90;;;;;;5156291;27;19927;-70
2022/08/06 10:40:48;;;;;;;;;;;17.80;99.90;;;;;;5156261;27;20010;-71
2022/08/06 10:43:14;;;;;;;;;;;17.80;99.90;;;;;;5156366;27;19934;-71
2022/08/06 10:45:40;;;;;;;;;;;17.80;99.90;;;;;;5156047;27;19930;-71
2022/08/06 10:48:07;;;;;;;;;;;17.80;99.90;;;;;;5155883;27;19923;-70
2022/08/06 10:50:33;;;;;;;;;;;17.90;99.90;;;;;;5156153;27;19923;-70
2022/08/06 10:52:59;;;;;;;;;;;18.00;99.90;;;;;;5156102;27;19930;-70
2022/08/06 10:55:26;;;;;;;;;;;18.00;99.90;;;;;;5155908;27;20440;-70
2022/08/06 10:57:52;;;;;;;;;;;18.10;99.90;;;;;;5137443;27;19934;-71
2022/08/06 11:00:17;;;;;;;;;;;18.10;99.90;;;;;;5155801;27;19923;-70
2022/08/06 11:02:52;;;;;;;;;;;18.30;99.90;;;;;;5154943;27;19923;-71
2022/08/06 11:05:19;;;;;;;;;;;18.30;99.90;;;;;;5155860;27;19945;-70
2022/08/06 11:08:03;;;;;;;;;;;18.30;99.90;;;;;;5155791;27;19923;-71
2022/08/06 11:10:32;;;;;;;;;;;18.40;99.90;;;;;;5155553;27;19930;-71
2022/08/06 11:13:13;;;;;;;;;;;18.40;99.90;;;;;;5136622;27;19923;-71
2022/08/06 11:15:40;;;;;;;;;;;18.40;99.90;;;;;;5137362;27;19962;-70
2022/08/06 11:18:07;;;;;;;;;;;18.40;99.90;;;;;;5155581;27;19929;-70
2022/08/06 11:20:33;;;;;;;;;;;18.30;99.90;;;;;;5155443;27;20375;-71
2022/08/06 11:22:59;;;;;;;;;;;18.40;99.90;;;;;;5155531;27;20421;-71
2022/08/06 11:25:43;;;;;;;;;;;18.30;99.90;;;;;;5155545;27;19970;-71
2022/08/06 11:28:10;;;;;;;;;;;18.30;99.90;;;;;;5155335;27;20037;-71
2022/08/06 11:30:46;;;;;;;;;;;18.30;99.90;;;;;;5171805;27;19930;-71
2022/08/06 11:33:13;;;;;;;;;;;18.20;99.90;;;;;;5155364;27;19930;-71
2022/08/06 11:35:40;;;;;;;;;;;18.30;99.90;;;;;;5155264;27;19958;-71
2022/08/06 11:38:09;;;;;;;;;;;18.40;99.90;;;;;;5155245;27;19923;-70
2022/08/06 11:40:55;;;;;;;;;;;18.40;99.90;;;;;;5136675;27;19930;-71
2022/08/06 11:43:39;;;;;;;;;;;18.40;99.90;;;;;;5155301;27;19923;-74
2022/08/06 11:46:20;;;;;;;;;;;18.50;99.90;;;;;;5155281;27;19923;-74
2022/08/06 11:49:02;;;;;;;;;;;18.50;99.90;;;;;;5155131;27;19957;-75
2022/08/06 11:51:37;;;;;;;;;;;18.50;99.90;;;;;;5137151;27;19927;-75
2022/08/06 11:54:15;;;;;;;;;;;18.50;99.90;;;;;;5155275;27;20017;-74
2022/08/06 11:57:10;;;;;;;;;;;18.60;99.90;;;;;;5136845;27;19927;-71
2022/08/06 11:59:58;;;;;;;;;;;18.70;99.90;;;;;;5132410;27;20015;-71
2022/08/06 12:02:56;;;;;;;;;;;18.70;99.90;;;;;;5050968;28;19925;-71
2022/08/06 12:05:22;;;;;;;;;;;18.80;99.90;;;;;;4975836;28;19926;-71
2022/08/06 12:08:07;;;;;;;;;;;18.90;99.90;;;;;;4975724;28;19948;-71
2022/08/06 12:10:33;;;;;;;;;;;19.00;99.90;;;;;;4991489;28;19926;-71
2022/08/06 12:12:59;;;;;;;;;;;19.00;99.90;;;;;;4991660;28;19949;-71
2022/08/06 12:15:26;;;;;;;;;;;19.10;99.90;;;;;;4995536;28;19969;-71
2022/08/06 12:17:54;;;;;;;;;;;19.20;99.90;;;;;;4995496;28;19949;-71
2022/08/06 12:20:36;;;;;;;;;;;19.20;99.90;;;;;;4995394;28;20448;-71
2022/08/06 12:23:03;;;;;;;;;;;19.30;99.90;;;;;;4995382;28;19925;-71
2022/08/06 12:25:40;;;;;;;;;;;19.40;99.90;;;;;;4979023;28;19992;-71
2022/08/06 12:28:10;;;;;;;;;;;19.40;99.90;;;;;;4979114;28;19930;-71
2022/08/06 12:30:42;;;;;;;;;;;19.40;99.90;;;;;;4995296;28;19961;-71
2022/08/06 12:33:08;;;;;;;;;;;19.40;99.90;;;;;;5009660;28;20487;-71
2022/08/06 12:35:35;;;;;;;;;;;19.30;99.90;;;;;;5014759;28;19929;-71
2022/08/06 12:38:09;;;;;;;;;;;19.30;99.90;;;;;;5014645;28;19980;-71
2022/08/06 12:40:36;;;;;;;;;;;19.30;99.90;;;;;;5115928;27;20292;-70
2022/08/06 12:43:02;;;;;;;;;;;19.40;99.90;;;;;;5158415;27;19967;-71
2022/08/06 12:45:28;;;;;;;;;;;19.40;99.90;;;;;;5158482;27;19923;-71
2022/08/06 12:48:00;;;;;;;;;;;19.40;99.90;;;;;;5139448;27;20370;-71
2022/08/06 12:50:26;;;;;;;;;;;19.40;99.90;;;;;;5140234;27;20266;-71
2022/08/06 12:53:02;;;;;;;;;;;19.40;99.90;;;;;;5158489;27;19930;-71
2022/08/06 12:55:28;;;;;;;;;;;19.40;99.90;;;;;;5158280;27;19923;-71
2022/08/06 12:57:55;;;;;;;;;;;19.50;99.90;;;;;;5157995;27;19923;-71
2022/08/06 13:00:21;;;;;;;;;;;19.50;99.90;;;;;;5158059;27;19967;-71
2022/08/06 13:02:47;;;;;;;;;;;19.50;99.90;;;;;;5157983;27;19922;-71
2022/08/06 13:05:14;;;;;;;;;;;19.40;99.90;;;;;;5158143;27;19927;-71
2022/08/06 13:07:39;;;;;;;;;;;19.40;99.90;;;;;;5158187;27;19923;-71
2022/08/06 13:10:09;;;;;;;;;;;19.30;99.90;;;;;;5139779;27;19930;-71
2022/08/06 13:12:35;;;;;;;;;;;19.30;99.90;;;;;;5157821;27;19923;-71
2022/08/06 13:15:09;;;;;;;;;;;19.30;99.90;;;;;;5157723;27;19924;-71
2022/08/06 13:17:35;;;;;;;;;;;19.30;99.90;;;;;;5139532;27;20010;-71
2022/08/06 13:20:01;;;;;;;;;;;19.30;99.90;;;;;;5157086;27;20417;-71
2022/08/06 13:22:27;;;;;;;;;;;19.30;99.90;;;;;;5138928;27;19934;-71
2022/08/06 13:25:08;;;;;;;;;;;19.30;99.90;;;;;;5157139;27;19923;-71
2022/08/06 13:27:36;;;;;;;;;;;19.30;99.90;;;;;;5156009;27;19923;-71
2022/08/06 13:30:03;;;;;;;;;;;19.40;99.90;;;;;;5139240;27;20343;-71
2022/08/06 13:32:29;;;;;;;;;;;19.40;99.90;;;;;;5155971;27;19934;-71
2022/08/06 13:34:56;;;;;;;;;;;19.50;99.90;;;;;;5157580;27;20021;-71
2022/08/06 13:37:40;;;;;;;;;;;19.50;99.90;;;;;;5157349;27;19924;-71
2022/08/06 13:40:06;;;;;;;;;;;19.50;99.90;;;;;;5157327;27;19923;-71
2022/08/06 13:42:31;;;;;;;;;;;19.40;99.90;;;;;;5157156;27;19930;-71
2022/08/06 13:44:57;;;;;;;;;;;19.40;99.90;;;;;;5157498;27;19927;-71
2022/08/06 13:47:26;;;;;;;;;;;19.50;99.90;;;;;;5157312;27;19923;-71
2022/08/06 13:49:52;;;;;;;;;;;19.50;99.90;;;;;;5157141;27;19923;-71
2022/08/06 13:52:18;;;;;;;;;;;19.50;99.90;;;;;;5157232;27;19984;-71
2022/08/06 13:54:43;;;;;;;;;;;19.60;99.90;;;;;;5157069;27;20335;-71
2022/08/06 13:57:09;;;;;;;;;;;19.70;99.90;;;;;;5156768;27;19930;-71
2022/08/06 13:59:37;;;;;;;;;;;19.60;99.90;;;;;;5157188;27;19924;-71
2022/08/06 14:02:03;;;;;;;;;;;19.60;99.90;;;;;;5157079;27;19934;-71
2022/08/06 14:04:31;;;;;;;;;;;19.50;99.90;;;;;;5156998;27;19923;-71
2022/08/06 14:06:57;;;;;;;;;;;19.50;99.90;;;;;;5156934;27;19927;-71
2022/08/06 14:09:23;;;;;;;;;;;19.50;99.90;;;;;;5156779;27;19923;-71
2022/08/06 14:11:51;;;;;;;;;;;19.50;99.90;;;;;;5156538;27;19923;-71
2022/08/06 14:14:17;;;;;;;;;;;19.50;99.90;;;;;;5138538;27;19927;-71
2022/08/06 14:16:43;;;;;;;;;;;19.50;99.30;;;;;;5156748;27;19922;-70
2022/08/06 14:19:09;;;;;;;;;;;19.60;99.90;;;;;;5156604;27;19923;-71
2022/08/06 14:21:34;;;;;;;;;;;19.60;99.90;;;;;;5156627;27;19930;-71
2022/08/06 14:24:00;;;;;;;;;;;19.60;99.90;;;;;;5138251;27;19930;-71
2022/08/06 14:26:25;;;;;;;;;;;19.60;99.90;;;;;;5120107;27;19987;-71
2022/08/06 14:28:51;;;;;;;;;;;19.60;99.90;;;;;;5156290;27;19923;-71